Terminal Aerodrome Forecast
Issued by NWS Jacksonville, FL

Home | Current Version | Previous Version | Text Only | Print | Product List | Glossary On
Versions: 1 2 3 4 5 6 7 8 9 10 11 12 13 14 15 16 17 18
000
FTUS42 KJAX 300600 AAA
TAFSSI
TAF AMD
KSSI 300614Z 3006/3106 09005KT P6SM VCSH SCT070 SCT150 SCT250
     FM300900 VRB03KT P6SM FEW070 FEW150 FEW250
     FM301500 07006KT P6SM FEW060 FEW250
     FM301800 09010KT P6SM SCT060
     FM310100 07006KT P6SM FEW070=

USA.gov is the U.S. government's official web portal to all federal, state and local government web resources and services.